首页
METAR-TAF:

METAR-TAF

机场 :

紐卡斯爾, 宾夕法尼亚州, 美国

纬度: 41-01-31N, 经度: 080-24-48W, 海拔: 326米

当前天气观测

该预报发布于57分钟前的22:56 UTC
风速4节,风向西转西北
温度 3°C
湿度 93%
气压 1015 hPa
能見度: 12.9公里
阴天层高于600英尺

METAR: KUCP 132256Z AUTO 29004KT 8SM OVC006 03/02 A2996 RMK AO2 SLP171 T00280017

时间: 18:53 (23:53 UTC)


TAF: 丢失

超过4000个机场的气象观测和天气预报(METAR&TAF报告)。

可查询的气象台以黄色和红色小点在地图上表示。

将鼠标移到小点上方,可查看气象台名称。

然后点击查看天气观测和预报。

如需切换地图:点击带黑十字的绿色按钮放大地图;点击带横线的绿色按钮缩小地图;或者点击绿色箭头查看邻近地区的地图。


METAR-TAF: